South Laguna, California
Current Conditions -  °F | °C
As of 8:53 AM on Wednesday 22 Oct 2014 (Local Time) from KSNA Reporting Station
Scattered Clouds Scattered Clouds  
Wind Chill: 69°   Ceiling: Unl
Heat Index: 69°   Visibility: 8mi
Dew Point: 58°   Wind: 0mph
Humidity: 68%   Direction: NA
Pressure: 29.95"   Gusts: NA
Location:  33.5745°N, 117.786°W
Report Text: KSNA 221553Z 00000KT 8SM SCT007 21/14 A2995 RMK AO2 SLP140 T02060144
Loading
Personal Weather Stations






























Interactive Weather Map
Tropical Storm Tracking
New forecast layout! Learn more

10-Day Weather Forecast

Advertisements
Track Severe Weather on mobile